sensor_id;sensor_type;location;lat;lon;timestamp;temperature;humidity
53045;DHT22;38930;52.766;6.884;2023-11-19T00:02:09;10.20;99.90
53045;DHT22;38930;52.766;6.884;2023-11-19T00:04:38;10.10;99.90
53045;DHT22;38930;52.766;6.884;2023-11-19T00:07:06;10.20;99.90
53045;DHT22;38930;52.766;6.884;2023-11-19T00:09:33;10.20;99.90
53045;DHT22;38930;52.766;6.884;2023-11-19T00:12:00;10.40;99.90
53045;DHT22;38930;52.766;6.884;2023-11-19T00:14:26;10.20;99.90
53045;DHT22;38930;52.766;6.884;2023-11-19T00:16:52;10.20;99.90
53045;DHT22;38930;52.766;6.884;2023-11-19T00:19:19;10.20;99.90
53045;DHT22;38930;52.766;6.884;2023-11-19T00:21:44;10.40;99.90
53045;DHT22;38930;52.766;6.884;2023-11-19T00:24:11;10.50;99.90
53045;DHT22;38930;52.766;6.884;2023-11-19T00:26:38;10.30;99.90
53045;DHT22;38930;52.766;6.884;2023-11-19T00:29:04;10.30;99.90
53045;DHT22;38930;52.766;6.884;2023-11-19T00:31:29;10.50;99.90
53045;DHT22;38930;52.766;6.884;2023-11-19T00:33:55;10.40;99.90
53045;DHT22;38930;52.766;6.884;2023-11-19T00:36:21;10.40;99.90
53045;DHT22;38930;52.766;6.884;2023-11-19T00:38:49;10.40;99.90
53045;DHT22;38930;52.766;6.884;2023-11-19T00:41:15;10.70;99.90
53045;DHT22;38930;52.766;6.884;2023-11-19T00:43:42;10.50;99.90
53045;DHT22;38930;52.766;6.884;2023-11-19T00:46:07;10.50;99.90
53045;DHT22;38930;52.766;6.884;2023-11-19T00:48:33;10.50;99.90
53045;DHT22;38930;52.766;6.884;2023-11-19T00:50:59;10.60;99.90
53045;DHT22;38930;52.766;6.884;2023-11-19T00:53:25;10.60;99.90
53045;DHT22;38930;52.766;6.884;2023-11-19T00:55:50;10.70;99.90
53045;DHT22;38930;52.766;6.884;2023-11-19T00:58:16;10.60;99.90
53045;DHT22;38930;52.766;6.884;2023-11-19T01:00:43;10.60;99.90
53045;DHT22;38930;52.766;6.884;2023-11-19T01:03:10;10.70;99.90
53045;DHT22;38930;52.766;6.884;2023-11-19T01:05:37;10.70;99.90
53045;DHT22;38930;52.766;6.884;2023-11-19T01:08:02;10.70;99.90
53045;DHT22;38930;52.766;6.884;2023-11-19T01:10:30;10.70;99.90
53045;DHT22;38930;52.766;6.884;2023-11-19T01:12:56;10.80;99.90
53045;DHT22;38930;52.766;6.884;2023-11-19T01:15:21;10.80;99.90
53045;DHT22;38930;52.766;6.884;2023-11-19T01:17:48;10.80;99.90
53045;DHT22;38930;52.766;6.884;2023-11-19T01:20:14;11.10;99.90
53045;DHT22;38930;52.766;6.884;2023-11-19T01:22:40;10.90;99.90
53045;DHT22;38930;52.766;6.884;2023-11-19T01:25:06;10.80;99.90
53045;DHT22;38930;52.766;6.884;2023-11-19T01:27:32;10.80;99.90
53045;DHT22;38930;52.766;6.884;2023-11-19T01:30:00;10.70;99.90
53045;DHT22;38930;52.766;6.884;2023-11-19T01:32:27;10.70;99.90
53045;DHT22;38930;52.766;6.884;2023-11-19T01:34:53;10.70;99.90
53045;DHT22;38930;52.766;6.884;2023-11-19T01:37:18;10.70;99.90
53045;DHT22;38930;52.766;6.884;2023-11-19T01:39:44;11.10;99.90
53045;DHT22;38930;52.766;6.884;2023-11-19T01:42:10;11.70;99.90
53045;DHT22;38930;52.766;6.884;2023-11-19T01:44:37;10.80;99.90
53045;DHT22;38930;52.766;6.884;2023-11-19T01:47:03;10.80;99.90
53045;DHT22;38930;52.766;6.884;2023-11-19T01:49:31;10.80;99.90
53045;DHT22;38930;52.766;6.884;2023-11-19T01:51:57;10.80;99.90
53045;DHT22;38930;52.766;6.884;2023-11-19T01:54:24;10.90;99.90
53045;DHT22;38930;52.766;6.884;2023-11-19T01:56:49;11.50;99.90
53045;DHT22;38930;52.766;6.884;2023-11-19T01:59:15;11.00;99.90
53045;DHT22;38930;52.766;6.884;2023-11-19T02:01:41;11.40;99.90
53045;DHT22;38930;52.766;6.884;2023-11-19T02:04:08;11.00;99.90
53045;DHT22;38930;52.766;6.884;2023-11-19T02:06:34;11.10;99.90
53045;DHT22;38930;52.766;6.884;2023-11-19T02:09:02;11.10;99.90
53045;DHT22;38930;52.766;6.884;2023-11-19T02:11:36;11.00;99.90
53045;DHT22;38930;52.766;6.884;2023-11-19T02:14:02;11.10;99.90
53045;DHT22;38930;52.766;6.884;2023-11-19T02:16:29;11.00;99.90
53045;DHT22;38930;52.766;6.884;2023-11-19T02:18:55;11.30;99.90
53045;DHT22;38930;52.766;6.884;2023-11-19T02:21:20;11.10;99.90
53045;DHT22;38930;52.766;6.884;2023-11-19T02:23:46;11.00;99.90
53045;DHT22;38930;52.766;6.884;2023-11-19T02:28:45;11.10;99.90
53045;DHT22;38930;52.766;6.884;2023-11-19T02:31:11;11.10;99.90
53045;DHT22;38930;52.766;6.884;2023-11-19T02:33:38;11.10;99.90
53045;DHT22;38930;52.766;6.884;2023-11-19T02:36:07;11.10;99.90
53045;DHT22;38930;52.766;6.884;2023-11-19T02:38:36;11.10;99.90
53045;DHT22;38930;52.766;6.884;2023-11-19T02:41:06;11.10;99.90
53045;DHT22;38930;52.766;6.884;2023-11-19T02:43:32;11.60;99.90
53045;DHT22;38930;52.766;6.884;2023-11-19T02:46:01;11.20;99.90
53045;DHT22;38930;52.766;6.884;2023-11-19T02:48:26;11.00;99.90
53045;DHT22;38930;52.766;6.884;2023-11-19T02:50:52;11.10;99.90
53045;DHT22;38930;52.766;6.884;2023-11-19T02:53:18;11.10;99.90
53045;DHT22;38930;52.766;6.884;2023-11-19T02:55:43;11.10;99.90
53045;DHT22;38930;52.766;6.884;2023-11-19T02:58:14;11.10;99.90
53045;DHT22;38930;52.766;6.884;2023-11-19T03:00:48;11.20;99.90
53045;DHT22;38930;52.766;6.884;2023-11-19T03:03:19;11.40;99.90
53045;DHT22;38930;52.766;6.884;2023-11-19T03:05:51;11.10;99.90
53045;DHT22;38930;52.766;6.884;2023-11-19T03:08:17;11.10;99.90
53045;DHT22;38930;52.766;6.884;2023-11-19T03:10:43;11.10;99.90
53045;DHT22;38930;52.766;6.884;2023-11-19T03:13:12;11.10;99.90
53045;DHT22;38930;52.766;6.884;2023-11-19T03:15:42;11.10;99.90
53045;DHT22;38930;52.766;6.884;2023-11-19T03:18:08;11.20;99.90
53045;DHT22;38930;52.766;6.884;2023-11-19T03:20:33;11.30;99.90
53045;DHT22;38930;52.766;6.884;2023-11-19T03:22:59;11.20;99.90
53045;DHT22;38930;52.766;6.884;2023-11-19T03:25:27;11.20;99.90
53045;DHT22;38930;52.766;6.884;2023-11-19T03:27:58;11.30;99.90
53045;DHT22;38930;52.766;6.884;2023-11-19T03:30:24;11.30;99.90
53045;DHT22;38930;52.766;6.884;2023-11-19T03:32:50;11.50;99.90
53045;DHT22;38930;52.766;6.884;2023-11-19T03:35:16;11.30;99.90
53045;DHT22;38930;52.766;6.884;2023-11-19T03:37:41;11.40;99.90
53045;DHT22;38930;52.766;6.884;2023-11-19T03:40:08;11.30;99.90
53045;DHT22;38930;52.766;6.884;2023-11-19T03:42:33;11.30;99.90
53045;DHT22;38930;52.766;6.884;2023-11-19T03:44:59;11.30;99.90
53045;DHT22;38930;52.766;6.884;2023-11-19T03:47:25;11.30;99.90
53045;DHT22;38930;52.766;6.884;2023-11-19T03:49:51;11.30;99.90
53045;DHT22;38930;52.766;6.884;2023-11-19T03:52:17;11.30;99.90
53045;DHT22;38930;52.766;6.884;2023-11-19T03:54:44;11.30;99.90
53045;DHT22;38930;52.766;6.884;2023-11-19T03:57:10;11.30;99.90
53045;DHT22;38930;52.766;6.884;2023-11-19T03:59:39;11.20;99.90
53045;DHT22;38930;52.766;6.884;2023-11-19T04:02:05;11.20;99.90
53045;DHT22;38930;52.766;6.884;2023-11-19T04:04:30;11.30;99.90
53045;DHT22;38930;52.766;6.884;2023-11-19T04:06:56;11.20;99.90
53045;DHT22;38930;52.766;6.884;2023-11-19T04:09:22;11.20;99.90
53045;DHT22;38930;52.766;6.884;2023-11-19T04:11:48;11.10;99.90
53045;DHT22;38930;52.766;6.884;2023-11-19T04:14:14;11.10;99.90
53045;DHT22;38930;52.766;6.884;2023-11-19T04:16:40;11.10;99.90
53045;DHT22;38930;52.766;6.884;2023-11-19T04:19:06;11.10;99.90
53045;DHT22;38930;52.766;6.884;2023-11-19T04:21:32;11.60;99.90
53045;DHT22;38930;52.766;6.884;2023-11-19T04:23:58;11.10;99.90
53045;DHT22;38930;52.766;6.884;2023-11-19T04:26:24;11.30;99.90
53045;DHT22;38930;52.766;6.884;2023-11-19T04:28:50;11.00;99.90
53045;DHT22;38930;52.766;6.884;2023-11-19T04:31:16;11.00;99.90
53045;DHT22;38930;52.766;6.884;2023-11-19T04:33:42;11.00;99.90
53045;DHT22;38930;52.766;6.884;2023-11-19T04:36:09;11.00;99.90
53045;DHT22;38930;52.766;6.884;2023-11-19T04:38:34;11.00;99.90
53045;DHT22;38930;52.766;6.884;2023-11-19T04:41:00;11.10;99.90
53045;DHT22;38930;52.766;6.884;2023-11-19T04:43:26;11.10;99.90
53045;DHT22;38930;52.766;6.884;2023-11-19T04:45:51;11.00;99.90
53045;DHT22;38930;52.766;6.884;2023-11-19T04:48:17;11.10;99.90
53045;DHT22;38930;52.766;6.884;2023-11-19T04:50:43;11.10;99.90
53045;DHT22;38930;52.766;6.884;2023-11-19T04:53:08;11.10;99.90
53045;DHT22;38930;52.766;6.884;2023-11-19T04:55:34;11.10;99.90
53045;DHT22;38930;52.766;6.884;2023-11-19T04:57:59;11.10;99.90
53045;DHT22;38930;52.766;6.884;2023-11-19T05:00:25;11.10;99.90
53045;DHT22;38930;52.766;6.884;2023-11-19T05:02:51;11.10;99.90
53045;DHT22;38930;52.766;6.884;2023-11-19T05:05:17;11.10;99.90
53045;DHT22;38930;52.766;6.884;2023-11-19T05:07:43;11.10;99.90
53045;DHT22;38930;52.766;6.884;2023-11-19T05:10:09;11.30;99.90
53045;DHT22;38930;52.766;6.884;2023-11-19T05:12:34;11.10;99.90
53045;DHT22;38930;52.766;6.884;2023-11-19T05:15:00;11.10;99.90
53045;DHT22;38930;52.766;6.884;2023-11-19T05:17:26;11.10;99.90
53045;DHT22;38930;52.766;6.884;2023-11-19T05:19:52;11.10;99.90
53045;DHT22;38930;52.766;6.884;2023-11-19T05:22:17;11.20;99.90
53045;DHT22;38930;52.766;6.884;2023-11-19T05:24:43;11.10;99.90
53045;DHT22;38930;52.766;6.884;2023-11-19T05:27:09;11.00;99.90
53045;DHT22;38930;52.766;6.884;2023-11-19T05:29:37;11.10;99.90
53045;DHT22;38930;52.766;6.884;2023-11-19T05:32:05;11.20;99.90
53045;DHT22;38930;52.766;6.884;2023-11-19T05:34:30;11.10;99.90
53045;DHT22;38930;52.766;6.884;2023-11-19T05:36:56;11.10;99.90
53045;DHT22;38930;52.766;6.884;2023-11-19T05:39:22;11.00;99.90
53045;DHT22;38930;52.766;6.884;2023-11-19T05:41:48;11.10;99.90
53045;DHT22;38930;52.766;6.884;2023-11-19T05:44:14;11.10;99.90
53045;DHT22;38930;52.766;6.884;2023-11-19T05:46:39;11.60;99.90
53045;DHT22;38930;52.766;6.884;2023-11-19T05:49:11;11.10;99.90
53045;DHT22;38930;52.766;6.884;2023-11-19T05:51:37;11.10;99.90
53045;DHT22;38930;52.766;6.884;2023-11-19T05:54:07;11.10;99.90
53045;DHT22;38930;52.766;6.884;2023-11-19T05:56:33;11.10;99.90
53045;DHT22;38930;52.766;6.884;2023-11-19T05:58:59;11.10;99.90
53045;DHT22;38930;52.766;6.884;2023-11-19T06:01:26;11.10;99.90
53045;DHT22;38930;52.766;6.884;2023-11-19T06:03:52;11.20;99.90
53045;DHT22;38930;52.766;6.884;2023-11-19T06:06:18;11.10;99.90
53045;DHT22;38930;52.766;6.884;2023-11-19T06:08:44;11.10;99.90
53045;DHT22;38930;52.766;6.884;2023-11-19T06:11:10;11.10;99.90
53045;DHT22;38930;52.766;6.884;2023-11-19T06:13:44;11.00;99.90
53045;DHT22;38930;52.766;6.884;2023-11-19T06:16:09;11.10;99.90
53045;DHT22;38930;52.766;6.884;2023-11-19T06:18:36;11.10;99.90
53045;DHT22;38930;52.766;6.884;2023-11-19T06:21:02;11.10;99.90
53045;DHT22;38930;52.766;6.884;2023-11-19T06:23:28;11.10;99.90
53045;DHT22;38930;52.766;6.884;2023-11-19T06:25:53;11.10;99.90
53045;DHT22;38930;52.766;6.884;2023-11-19T06:28:19;11.10;99.90
53045;DHT22;38930;52.766;6.884;2023-11-19T06:30:44;11.10;99.90
53045;DHT22;38930;52.766;6.884;2023-11-19T06:33:14;11.10;99.90
53045;DHT22;38930;52.766;6.884;2023-11-19T06:35:39;11.10;99.90
53045;DHT22;38930;52.766;6.884;2023-11-19T06:38:05;11.40;99.90
53045;DHT22;38930;52.766;6.884;2023-11-19T06:40:32;11.00;99.90
53045;DHT22;38930;52.766;6.884;2023-11-19T06:42:57;11.10;99.90
53045;DHT22;38930;52.766;6.884;2023-11-19T06:45:23;11.40;99.90
53045;DHT22;38930;52.766;6.884;2023-11-19T06:47:49;11.10;99.90
53045;DHT22;38930;52.766;6.884;2023-11-19T06:50:15;11.10;99.90
53045;DHT22;38930;52.766;6.884;2023-11-19T06:52:41;11.10;99.90
53045;DHT22;38930;52.766;6.884;2023-11-19T06:55:07;11.10;99.90
53045;DHT22;38930;52.766;6.884;2023-11-19T06:57:33;11.00;99.90
53045;DHT22;38930;52.766;6.884;2023-11-19T06:59:58;11.00;99.90
53045;DHT22;38930;52.766;6.884;2023-11-19T07:02:24;11.00;99.90
53045;DHT22;38930;52.766;6.884;2023-11-19T07:04:50;11.00;99.90
53045;DHT22;38930;52.766;6.884;2023-11-19T07:07:16;11.00;99.90
53045;DHT22;38930;52.766;6.884;2023-11-19T07:09:42;11.00;99.90
53045;DHT22;38930;52.766;6.884;2023-11-19T07:12:08;10.90;99.90
53045;DHT22;38930;52.766;6.884;2023-11-19T07:14:34;11.00;99.90
53045;DHT22;38930;52.766;6.884;2023-11-19T07:17:00;11.00;99.90
53045;DHT22;38930;52.766;6.884;2023-11-19T07:19:26;11.50;99.90
53045;DHT22;38930;52.766;6.884;2023-11-19T07:21:52;11.00;99.90
53045;DHT22;38930;52.766;6.884;2023-11-19T07:24:20;10.90;99.90
53045;DHT22;38930;52.766;6.884;2023-11-19T07:26:47;10.90;99.90
53045;DHT22;38930;52.766;6.884;2023-11-19T07:29:14;10.90;99.90
53045;DHT22;38930;52.766;6.884;2023-11-19T07:31:40;10.90;99.90
53045;DHT22;38930;52.766;6.884;2023-11-19T07:34:06;11.00;99.90
53045;DHT22;38930;52.766;6.884;2023-11-19T07:36:32;10.90;99.90
53045;DHT22;38930;52.766;6.884;2023-11-19T07:38:58;10.80;99.90
53045;DHT22;38930;52.766;6.884;2023-11-19T07:41:24;10.80;99.90
53045;DHT22;38930;52.766;6.884;2023-11-19T07:43:51;10.80;99.90
53045;DHT22;38930;52.766;6.884;2023-11-19T07:46:17;10.80;99.90
53045;DHT22;38930;52.766;6.884;2023-11-19T07:48:45;10.80;99.90
53045;DHT22;38930;52.766;6.884;2023-11-19T07:51:13;10.80;99.90
53045;DHT22;38930;52.766;6.884;2023-11-19T07:53:39;11.00;99.90
53045;DHT22;38930;52.766;6.884;2023-11-19T07:56:05;10.80;99.90
53045;DHT22;38930;52.766;6.884;2023-11-19T07:58:31;10.80;99.90
53045;DHT22;38930;52.766;6.884;2023-11-19T08:00:56;10.90;99.90
53045;DHT22;38930;52.766;6.884;2023-11-19T08:03:22;10.90;99.90
53045;DHT22;38930;52.766;6.884;2023-11-19T08:05:48;10.90;99.90
53045;DHT22;38930;52.766;6.884;2023-11-19T08:08:14;10.90;99.90
53045;DHT22;38930;52.766;6.884;2023-11-19T08:10:40;10.90;99.90
53045;DHT22;38930;52.766;6.884;2023-11-19T08:13:06;11.50;99.90
53045;DHT22;38930;52.766;6.884;2023-11-19T08:15:32;11.50;99.90
53045;DHT22;38930;52.766;6.884;2023-11-19T08:17:57;10.90;99.90
53045;DHT22;38930;52.766;6.884;2023-11-19T08:20:23;11.00;99.90
53045;DHT22;38930;52.766;6.884;2023-11-19T08:22:49;10.90;99.90
53045;DHT22;38930;52.766;6.884;2023-11-19T08:25:14;10.90;99.90
53045;DHT22;38930;52.766;6.884;2023-11-19T08:27:40;11.00;99.90
53045;DHT22;38930;52.766;6.884;2023-11-19T08:30:06;10.90;99.90
53045;DHT22;38930;52.766;6.884;2023-11-19T08:32:32;10.90;99.90
53045;DHT22;38930;52.766;6.884;2023-11-19T08:34:58;10.90;99.90
53045;DHT22;38930;52.766;6.884;2023-11-19T08:37:23;11.00;99.90
53045;DHT22;38930;52.766;6.884;2023-11-19T08:39:49;11.00;99.90
53045;DHT22;38930;52.766;6.884;2023-11-19T08:42:16;10.90;99.90
53045;DHT22;38930;52.766;6.884;2023-11-19T08:44:42;11.00;99.90
53045;DHT22;38930;52.766;6.884;2023-11-19T08:47:12;11.00;99.90
53045;DHT22;38930;52.766;6.884;2023-11-19T08:49:38;11.00;99.90
53045;DHT22;38930;52.766;6.884;2023-11-19T08:52:05;11.00;99.90
53045;DHT22;38930;52.766;6.884;2023-11-19T08:54:32;11.00;99.90
53045;DHT22;38930;52.766;6.884;2023-11-19T08:56:58;11.30;99.90
53045;DHT22;38930;52.766;6.884;2023-11-19T08:59:25;11.00;99.90
53045;DHT22;38930;52.766;6.884;2023-11-19T09:01:50;11.10;99.90
53045;DHT22;38930;52.766;6.884;2023-11-19T09:04:16;11.10;99.90
53045;DHT22;38930;52.766;6.884;2023-11-19T09:06:41;11.00;99.90
53045;DHT22;38930;52.766;6.884;2023-11-19T09:09:08;11.00;99.90
53045;DHT22;38930;52.766;6.884;2023-11-19T09:11:34;11.00;99.90
53045;DHT22;38930;52.766;6.884;2023-11-19T09:14:00;10.80;99.90
53045;DHT22;38930;52.766;6.884;2023-11-19T09:16:26;10.90;99.90
53045;DHT22;38930;52.766;6.884;2023-11-19T09:18:51;11.40;99.90
53045;DHT22;38930;52.766;6.884;2023-11-19T09:21:17;11.60;99.90
53045;DHT22;38930;52.766;6.884;2023-11-19T09:23:43;10.90;99.90
53045;DHT22;38930;52.766;6.884;2023-11-19T09:26:09;10.90;99.90
53045;DHT22;38930;52.766;6.884;2023-11-19T09:28:37;10.90;99.90
53045;DHT22;38930;52.766;6.884;2023-11-19T09:31:15;10.90;99.90
53045;DHT22;38930;52.766;6.884;2023-11-19T09:33:41;10.90;99.90
53045;DHT22;38930;52.766;6.884;2023-11-19T09:36:08;10.90;99.90
53045;DHT22;38930;52.766;6.884;2023-11-19T09:38:34;10.90;99.90
53045;DHT22;38930;52.766;6.884;2023-11-19T09:41:04;10.90;99.90
53045;DHT22;38930;52.766;6.884;2023-11-19T09:43:34;11.00;99.90
53045;DHT22;38930;52.766;6.884;2023-11-19T09:46:04;11.30;99.90
53045;DHT22;38930;52.766;6.884;2023-11-19T09:48:33;11.00;99.90
53045;DHT22;38930;52.766;6.884;2023-11-19T09:51:01;11.00;99.90
53045;DHT22;38930;52.766;6.884;2023-11-19T09:53:27;10.90;99.90
53045;DHT22;38930;52.766;6.884;2023-11-19T09:55:53;11.10;99.90
53045;DHT22;38930;52.766;6.884;2023-11-19T09:58:20;11.10;99.90
53045;DHT22;38930;52.766;6.884;2023-11-19T10:00:47;11.30;99.90
53045;DHT22;38930;52.766;6.884;2023-11-19T10:03:12;11.40;99.90
53045;DHT22;38930;52.766;6.884;2023-11-19T10:05:38;11.40;99.90
53045;DHT22;38930;52.766;6.884;2023-11-19T10:08:07;11.40;99.90
53045;DHT22;38930;52.766;6.884;2023-11-19T10:10:34;11.50;99.90
53045;DHT22;38930;52.766;6.884;2023-11-19T10:13:00;11.50;99.90
53045;DHT22;38930;52.766;6.884;2023-11-19T10:15:26;11.50;99.90
53045;DHT22;38930;52.766;6.884;2023-11-19T10:17:58;11.50;99.90
53045;DHT22;38930;52.766;6.884;2023-11-19T10:20:23;11.50;99.90
53045;DHT22;38930;52.766;6.884;2023-11-19T10:22:53;11.40;99.90
53045;DHT22;38930;52.766;6.884;2023-11-19T10:25:25;11.50;99.90
53045;DHT22;38930;52.766;6.884;2023-11-19T10:27:52;11.50;99.90
53045;DHT22;38930;52.766;6.884;2023-11-19T10:30:24;11.60;99.90
53045;DHT22;38930;52.766;6.884;2023-11-19T10:33:07;11.50;99.90
53045;DHT22;38930;52.766;6.884;2023-11-19T10:35:34;11.70;99.90
53045;DHT22;38930;52.766;6.884;2023-11-19T10:38:03;11.60;99.90
53045;DHT22;38930;52.766;6.884;2023-11-19T10:40:38;11.50;99.90
53045;DHT22;38930;52.766;6.884;2023-11-19T10:43:08;11.70;99.90
53045;DHT22;38930;52.766;6.884;2023-11-19T10:45:35;11.60;99.90
53045;DHT22;38930;52.766;6.884;2023-11-19T10:48:01;11.70;99.90
53045;DHT22;38930;52.766;6.884;2023-11-19T10:50:27;11.50;99.90
53045;DHT22;38930;52.766;6.884;2023-11-19T10:52:56;11.40;99.90
53045;DHT22;38930;52.766;6.884;2023-11-19T10:55:27;11.60;99.90
53045;DHT22;38930;52.766;6.884;2023-11-19T10:58:00;11.40;99.90
53045;DHT22;38930;52.766;6.884;2023-11-19T11:00:28;11.40;99.90
53045;DHT22;38930;52.766;6.884;2023-11-19T11:02:59;11.40;99.90
53045;DHT22;38930;52.766;6.884;2023-11-19T11:05:26;11.40;99.90
53045;DHT22;38930;52.766;6.884;2023-11-19T11:07:54;11.50;99.90
53045;DHT22;38930;52.766;6.884;2023-11-19T11:10:21;11.40;99.90
53045;DHT22;38930;52.766;6.884;2023-11-19T11:12:52;11.50;99.90
53045;DHT22;38930;52.766;6.884;2023-11-19T11:15:27;11.70;99.90
53045;DHT22;38930;52.766;6.884;2023-11-19T11:17:59;11.50;99.90
53045;DHT22;38930;52.766;6.884;2023-11-19T11:20:25;11.50;99.90
53045;DHT22;38930;52.766;6.884;2023-11-19T11:23:06;11.60;99.90
53045;DHT22;38930;52.766;6.884;2023-11-19T11:25:39;11.60;99.90
53045;DHT22;38930;52.766;6.884;2023-11-19T11:39:50;11.80;99.90
53045;DHT22;38930;52.766;6.884;2023-11-19T11:45:46;11.90;99.90
53045;DHT22;38930;52.766;6.884;2023-11-19T11:48:17;11.80;99.90
53045;DHT22;38930;52.766;6.884;2023-11-19T11:50:53;11.80;99.90
53045;DHT22;38930;52.766;6.884;2023-11-19T11:53:20;11.80;99.90
53045;DHT22;38930;52.766;6.884;2023-11-19T11:58:20;11.90;99.90
53045;DHT22;38930;52.766;6.884;2023-11-19T12:00:47;11.80;99.90
53045;DHT22;38930;52.766;6.884;2023-11-19T12:03:14;11.80;99.90
53045;DHT22;38930;52.766;6.884;2023-11-19T12:05:45;11.70;99.90
53045;DHT22;38930;52.766;6.884;2023-11-19T12:08:12;11.70;99.90
53045;DHT22;38930;52.766;6.884;2023-11-19T12:10:46;11.60;99.90
53045;DHT22;38930;52.766;6.884;2023-11-19T12:13:16;11.60;99.90
53045;DHT22;38930;52.766;6.884;2023-11-19T12:18:31;11.70;99.90
53045;DHT22;38930;52.766;6.884;2023-11-19T12:20:58;11.50;99.90
53045;DHT22;38930;52.766;6.884;2023-11-19T12:23:28;11.80;99.90
53045;DHT22;38930;52.766;6.884;2023-11-19T12:25:56;11.50;99.90
53045;DHT22;38930;52.766;6.884;2023-11-19T12:28:21;11.50;99.90
53045;DHT22;38930;52.766;6.884;2023-11-19T12:30:49;11.60;99.90
53045;DHT22;38930;52.766;6.884;2023-11-19T12:33:15;11.50;99.90
53045;DHT22;38930;52.766;6.884;2023-11-19T12:35:43;11.50;99.90
53045;DHT22;38930;52.766;6.884;2023-11-19T12:38:21;11.60;99.90
53045;DHT22;38930;52.766;6.884;2023-11-19T12:41:09;11.60;99.90
53045;DHT22;38930;52.766;6.884;2023-11-19T12:43:35;11.50;99.90
53045;DHT22;38930;52.766;6.884;2023-11-19T12:46:03;11.50;99.90
53045;DHT22;38930;52.766;6.884;2023-11-19T12:48:29;11.60;99.90
53045;DHT22;38930;52.766;6.884;2023-11-19T12:50:58;11.60;99.90
53045;DHT22;38930;52.766;6.884;2023-11-19T12:53:25;11.60;99.90
53045;DHT22;38930;52.766;6.884;2023-11-19T12:55:52;11.70;99.90
53045;DHT22;38930;52.766;6.884;2023-11-19T12:58:33;11.70;99.90
53045;DHT22;38930;52.766;6.884;2023-11-19T13:01:01;11.80;99.90
53045;DHT22;38930;52.766;6.884;2023-11-19T13:03:34;11.70;99.90
53045;DHT22;38930;52.766;6.884;2023-11-19T13:06:05;11.70;99.90
53045;DHT22;38930;52.766;6.884;2023-11-19T13:08:57;11.80;99.90
53045;DHT22;38930;52.766;6.884;2023-11-19T13:11:35;12.30;99.90
53045;DHT22;38930;52.766;6.884;2023-11-19T13:14:05;11.90;99.90
53045;DHT22;38930;52.766;6.884;2023-11-19T13:16:31;11.90;99.90
53045;DHT22;38930;52.766;6.884;2023-11-19T13:18:57;11.80;99.90
53045;DHT22;38930;52.766;6.884;2023-11-19T13:21:23;11.80;99.90
53045;DHT22;38930;52.766;6.884;2023-11-19T13:23:49;11.80;99.90
53045;DHT22;38930;52.766;6.884;2023-11-19T13:26:15;12.10;99.90
53045;DHT22;38930;52.766;6.884;2023-11-19T13:28:41;11.80;99.90
53045;DHT22;38930;52.766;6.884;2023-11-19T13:31:07;11.70;99.90
53045;DHT22;38930;52.766;6.884;2023-11-19T13:33:33;11.70;99.90
53045;DHT22;38930;52.766;6.884;2023-11-19T13:35:59;11.60;99.90
53045;DHT22;38930;52.766;6.884;2023-11-19T13:38:31;11.60;99.90
53045;DHT22;38930;52.766;6.884;2023-11-19T13:40:57;11.60;99.90
53045;DHT22;38930;52.766;6.884;2023-11-19T13:43:24;11.60;99.90
53045;DHT22;38930;52.766;6.884;2023-11-19T13:45:49;11.60;99.90
53045;DHT22;38930;52.766;6.884;2023-11-19T13:48:16;11.50;99.90
53045;DHT22;38930;52.766;6.884;2023-11-19T13:50:42;11.60;99.90
53045;DHT22;38930;52.766;6.884;2023-11-19T13:53:07;11.60;99.90
53045;DHT22;38930;52.766;6.884;2023-11-19T13:55:33;11.50;99.90
53045;DHT22;38930;52.766;6.884;2023-11-19T13:57:59;11.50;99.90
53045;DHT22;38930;52.766;6.884;2023-11-19T14:00:25;11.50;99.90
53045;DHT22;38930;52.766;6.884;2023-11-19T14:02:50;11.50;99.90
53045;DHT22;38930;52.766;6.884;2023-11-19T14:05:17;11.40;99.90
53045;DHT22;38930;52.766;6.884;2023-11-19T14:07:43;11.40;99.90
53045;DHT22;38930;52.766;6.884;2023-11-19T14:10:10;11.40;99.90
53045;DHT22;38930;52.766;6.884;2023-11-19T14:12:39;11.40;99.90
53045;DHT22;38930;52.766;6.884;2023-11-19T14:15:06;11.40;99.90
53045;DHT22;38930;52.766;6.884;2023-11-19T14:17:33;11.30;99.90
53045;DHT22;38930;52.766;6.884;2023-11-19T14:19:59;11.30;99.90
53045;DHT22;38930;52.766;6.884;2023-11-19T14:22:25;11.30;99.90
53045;DHT22;38930;52.766;6.884;2023-11-19T14:24:51;11.30;99.90
53045;DHT22;38930;52.766;6.884;2023-11-19T14:27:16;11.30;99.90
53045;DHT22;38930;52.766;6.884;2023-11-19T14:29:43;11.20;99.90
53045;DHT22;38930;52.766;6.884;2023-11-19T14:32:10;11.20;99.90
53045;DHT22;38930;52.766;6.884;2023-11-19T14:34:36;11.20;99.90
53045;DHT22;38930;52.766;6.884;2023-11-19T14:37:01;11.20;99.90
53045;DHT22;38930;52.766;6.884;2023-11-19T14:39:27;11.10;99.90
53045;DHT22;38930;52.766;6.884;2023-11-19T14:41:54;11.10;99.90
53045;DHT22;38930;52.766;6.884;2023-11-19T14:44:23;11.10;99.90
53045;DHT22;38930;52.766;6.884;2023-11-19T14:46:49;11.10;99.90
53045;DHT22;38930;52.766;6.884;2023-11-19T14:49:17;11.00;99.90
53045;DHT22;38930;52.766;6.884;2023-11-19T14:51:43;11.00;99.90
53045;DHT22;38930;52.766;6.884;2023-11-19T14:54:08;11.20;99.90
53045;DHT22;38930;52.766;6.884;2023-11-19T14:56:34;11.00;99.90
53045;DHT22;38930;52.766;6.884;2023-11-19T14:59:00;11.00;99.90
53045;DHT22;38930;52.766;6.884;2023-11-19T15:01:25;11.00;99.90
53045;DHT22;38930;52.766;6.884;2023-11-19T15:03:51;10.90;99.90
53045;DHT22;38930;52.766;6.884;2023-11-19T15:06:17;10.90;99.90
53045;DHT22;38930;52.766;6.884;2023-11-19T15:08:42;11.20;99.90
53045;DHT22;38930;52.766;6.884;2023-11-19T15:11:10;11.30;99.90
53045;DHT22;38930;52.766;6.884;2023-11-19T15:13:37;11.20;99.90
53045;DHT22;38930;52.766;6.884;2023-11-19T15:16:03;10.90;99.90
53045;DHT22;38930;52.766;6.884;2023-11-19T15:18:31;10.90;99.90
53045;DHT22;38930;52.766;6.884;2023-11-19T15:20:57;10.90;99.90
53045;DHT22;38930;52.766;6.884;2023-11-19T15:23:22;10.90;99.90
53045;DHT22;38930;52.766;6.884;2023-11-19T15:25:48;10.90;99.90
53045;DHT22;38930;52.766;6.884;2023-11-19T15:28:14;10.80;99.90
53045;DHT22;38930;52.766;6.884;2023-11-19T15:30:40;10.80;99.90
53045;DHT22;38930;52.766;6.884;2023-11-19T15:33:06;10.80;99.90
53045;DHT22;38930;52.766;6.884;2023-11-19T15:35:34;10.80;99.90
53045;DHT22;38930;52.766;6.884;2023-11-19T15:38:00;11.40;99.90
53045;DHT22;38930;52.766;6.884;2023-11-19T15:40:26;10.80;99.90
53045;DHT22;38930;52.766;6.884;2023-11-19T15:42:52;10.80;99.90
53045;DHT22;38930;52.766;6.884;2023-11-19T15:45:20;10.80;99.90
53045;DHT22;38930;52.766;6.884;2023-11-19T15:47:46;10.70;99.90
53045;DHT22;38930;52.766;6.884;2023-11-19T15:50:11;11.30;99.90
53045;DHT22;38930;52.766;6.884;2023-11-19T15:52:37;10.70;99.90